createdAt,value
2024-02-22T00:04:31.403Z,10.35
2024-02-22T00:06:59.098Z,10.88
2024-02-22T00:09:26.542Z,11.45
2024-02-22T00:11:55.078Z,12.27
2024-02-22T00:14:22.913Z,14.13
2024-02-22T00:16:50.862Z,14.65
2024-02-22T00:19:19.345Z,15.18
2024-02-22T00:21:47.062Z,14.90
2024-02-22T00:24:14.460Z,15.02
2024-02-22T00:26:41.778Z,15.95
2024-02-22T00:29:09.360Z,16.73
2024-02-22T00:31:36.901Z,15.63
2024-02-22T00:34:04.549Z,13.85
2024-02-22T00:36:43.864Z,14.85
2024-02-22T00:39:11.689Z,14.63
2024-02-22T00:41:39.608Z,15.30
2024-02-22T00:44:08.821Z,15.73
2024-02-22T00:46:37.674Z,16.45
2024-02-22T00:49:05.503Z,16.42
2024-02-22T00:51:33.070Z,15.32
2024-02-22T00:54:00.558Z,17.02
2024-02-22T00:56:27.914Z,17.45
2024-02-22T00:58:55.330Z,16.83
2024-02-22T01:01:22.817Z,17.63
2024-02-22T01:03:50.394Z,16.70
2024-02-22T01:06:17.923Z,16.35
2024-02-22T01:08:45.447Z,17.88
2024-02-22T01:11:13.068Z,18.17
2024-02-22T01:13:40.746Z,18.75
2024-02-22T01:16:08.239Z,18.65
2024-02-22T01:18:35.768Z,19.45
2024-02-22T01:21:03.278Z,19.92
2024-02-22T01:23:30.729Z,20.45
2024-02-22T01:26:01.223Z,20.30
2024-02-22T01:28:30.731Z,21.52
2024-02-22T01:30:58.261Z,21.55
2024-02-22T01:33:25.755Z,22.27
2024-02-22T01:35:53.122Z,22.30
2024-02-22T01:38:20.626Z,22.40
2024-02-22T01:40:48.145Z,22.50
2024-02-22T01:43:15.449Z,24.25
2024-02-22T01:45:42.791Z,23.13
2024-02-22T01:48:10.900Z,24.70
2024-02-22T01:50:41.332Z,24.17
2024-02-22T01:53:10.014Z,23.90
2024-02-22T01:55:38.121Z,23.70
2024-02-22T01:58:06.087Z,23.88
2024-02-22T02:00:34.157Z,22.95
2024-02-22T02:03:02.621Z,23.58
2024-02-22T02:05:30.019Z,23.67
2024-02-22T02:07:57.437Z,24.50
2024-02-22T02:10:25.095Z,24.67
2024-02-22T02:12:52.591Z,27.73
2024-02-22T02:15:19.936Z,25.77
2024-02-22T02:17:47.265Z,26.35
2024-02-22T02:20:16.174Z,24.70
2024-02-22T02:22:43.636Z,25.83
2024-02-22T02:25:11.407Z,27.17
2024-02-22T02:27:39.043Z,26.35
2024-02-22T02:30:07.387Z,26.67
2024-02-22T02:32:34.801Z,26.52
2024-02-22T02:35:02.336Z,28.15
2024-02-22T02:37:29.801Z,26.73
2024-02-22T02:39:57.254Z,27.30
2024-02-22T02:42:25.732Z,26.95
2024-02-22T02:44:53.245Z,26.92
2024-02-22T02:47:20.954Z,26.55
2024-02-22T02:49:49.383Z,27.90
2024-02-22T02:52:16.865Z,24.15
2024-02-22T02:54:44.336Z,25.20
2024-02-22T02:57:11.777Z,25.33
2024-02-22T02:59:39.152Z,24.63
2024-02-22T03:02:06.830Z,25.10
2024-02-22T03:04:34.319Z,25.98
2024-02-22T03:07:01.675Z,24.25
2024-02-22T03:09:29.068Z,25.58
2024-02-22T03:11:56.394Z,24.88
2024-02-22T03:14:23.810Z,24.35
2024-02-22T03:16:51.196Z,24.55
2024-02-22T03:19:18.797Z,24.80
2024-02-22T03:21:46.113Z,24.02
2024-02-22T03:24:16.071Z,25.00
2024-02-22T03:26:47.654Z,23.80
2024-02-22T03:29:15.025Z,24.95
2024-02-22T03:31:42.997Z,24.85
2024-02-22T03:34:10.529Z,23.90
2024-02-22T03:36:37.979Z,25.40
2024-02-22T03:39:06.575Z,23.33
2024-02-22T03:41:33.999Z,21.60
2024-02-22T04:28:39.905Z,21.58
2024-02-22T04:31:07.156Z,22.92
2024-02-22T04:33:34.257Z,22.65
2024-02-22T04:36:02.099Z,21.30
2024-02-22T04:38:29.348Z,21.48
2024-02-22T04:40:56.953Z,21.08
2024-02-22T04:43:24.102Z,22.92
2024-02-22T04:45:51.419Z,20.85
2024-02-22T04:48:18.699Z,20.13
2024-02-22T04:50:45.925Z,22.00
2024-02-22T04:53:13.837Z,20.88
2024-02-22T04:55:41.345Z,21.98
2024-02-22T04:58:08.406Z,21.42
2024-02-22T05:00:36.228Z,22.35
2024-02-22T05:03:05.032Z,22.15
2024-02-22T05:05:32.356Z,21.33
2024-02-22T05:07:59.709Z,20.92
2024-02-22T05:10:26.913Z,20.15
2024-02-22T05:12:54.119Z,20.85
2024-02-22T05:15:21.371Z,20.35
2024-02-22T05:17:49.744Z,21.40
2024-02-22T05:20:17.459Z,20.20
2024-02-22T05:22:44.814Z,21.75
2024-02-22T05:25:12.015Z,21.17
2024-02-22T05:27:40.702Z,19.83
2024-02-22T05:30:08.801Z,21.02
2024-02-22T05:32:36.056Z,20.58
2024-02-22T05:35:03.239Z,19.55
2024-02-22T05:37:32.301Z,22.20
2024-02-22T05:42:27.971Z,20.83
2024-02-22T05:44:55.265Z,19.92
2024-02-22T05:47:22.431Z,19.50
2024-02-22T05:49:49.641Z,18.85
2024-02-22T05:52:17.047Z,18.90
2024-02-22T05:54:46.588Z,18.45
2024-02-22T05:57:14.056Z,18.38
2024-02-22T05:59:41.353Z,17.65
2024-02-22T06:02:08.618Z,17.67
2024-02-22T06:04:35.858Z,17.95
2024-02-22T06:07:03.478Z,18.23
2024-02-22T06:09:30.684Z,18.35
2024-02-22T06:11:58.272Z,18.23
2024-02-22T06:14:25.480Z,18.55
2024-02-22T06:16:52.709Z,17.13
2024-02-22T06:19:19.956Z,17.25
2024-02-22T06:21:47.318Z,16.33
2024-02-22T06:24:14.476Z,16.05
2024-02-22T06:26:41.643Z,16.15
2024-02-22T06:29:08.952Z,14.93
2024-02-22T06:31:36.203Z,17.20
2024-02-22T06:34:03.514Z,15.52
2024-02-22T06:36:31.463Z,14.63
2024-02-22T06:38:58.584Z,15.50
2024-02-22T06:41:26.377Z,15.07
2024-02-22T06:43:55.805Z,14.63
2024-02-22T06:46:25.697Z,14.80
2024-02-22T06:48:53.901Z,14.10
2024-02-22T06:51:24.484Z,12.70
2024-02-22T06:53:51.645Z,13.98
2024-02-22T06:56:18.897Z,13.05
2024-02-22T06:58:46.171Z,13.52
2024-02-22T07:01:13.468Z,13.30
2024-02-22T07:03:40.648Z,12.93
2024-02-22T07:06:07.897Z,13.32
2024-02-22T07:08:35.294Z,12.80
2024-02-22T07:11:06.137Z,14.27
2024-02-22T07:13:36.371Z,12.82
2024-02-22T07:16:04.589Z,12.57
2024-02-22T07:18:32.025Z,14.00
2024-02-22T07:20:59.531Z,12.80
2024-02-22T07:23:26.914Z,13.18
2024-02-22T07:25:54.019Z,13.40
2024-02-22T07:28:22.189Z,12.63
2024-02-22T07:30:49.454Z,12.30
2024-02-22T07:33:18.068Z,12.02
2024-02-22T07:35:45.271Z,12.90
2024-02-22T07:38:12.456Z,12.57
2024-02-22T07:40:39.890Z,12.27
2024-02-22T07:43:07.185Z,12.05
2024-02-22T07:45:34.582Z,11.57
2024-02-22T07:48:10.033Z,11.05
2024-02-22T07:50:38.306Z,11.73
2024-02-22T07:53:09.013Z,10.48
2024-02-22T07:55:38.167Z,10.73
2024-02-22T07:58:05.572Z,9.80
2024-02-22T08:00:32.752Z,10.50
2024-02-22T08:02:59.909Z,10.07
2024-02-22T08:05:27.183Z,9.88
2024-02-22T08:07:54.433Z,10.25
2024-02-22T08:10:21.641Z,9.90
2024-02-22T08:12:48.912Z,9.98
2024-02-22T08:15:16.565Z,9.43
2024-02-22T08:17:43.801Z,9.00
2024-02-22T08:20:12.950Z,9.18
2024-02-22T08:22:40.410Z,9.05
2024-02-22T08:25:08.085Z,9.57
2024-02-22T08:27:36.794Z,9.02
2024-02-22T08:30:06.351Z,10.27
2024-02-22T08:32:33.512Z,9.02
2024-02-22T08:35:00.816Z,9.00
2024-02-22T08:37:28.292Z,9.57
2024-02-22T08:39:55.472Z,9.10
2024-02-22T08:42:22.748Z,9.20
2024-02-22T08:44:51.106Z,8.30
2024-02-22T08:47:18.299Z,8.43
2024-02-22T08:49:46.953Z,9.35
2024-02-22T08:52:16.252Z,8.02
2024-02-22T08:54:44.393Z,7.63
2024-02-22T08:57:11.569Z,8.23
2024-02-22T08:59:38.740Z,8.02
2024-02-22T09:02:06.053Z,7.45
2024-02-22T09:04:33.327Z,7.45
2024-02-22T09:07:01.327Z,6.95
2024-02-22T09:09:29.722Z,6.30
2024-02-22T09:11:57.125Z,6.70
2024-02-22T09:14:24.431Z,6.38
2024-02-22T09:16:51.807Z,6.72
2024-02-22T09:19:19.096Z,7.03
2024-02-22T09:21:47.780Z,5.93
2024-02-22T09:24:15.088Z,6.65
2024-02-22T09:26:42.305Z,7.07
2024-02-22T09:29:10.204Z,6.07
2024-02-22T09:31:37.570Z,6.20
2024-02-22T09:34:05.909Z,6.18
2024-02-22T09:36:34.235Z,5.45
2024-02-22T09:39:01.352Z,5.03
2024-02-22T09:41:28.998Z,5.57
2024-02-22T09:43:57.905Z,4.90
2024-02-22T09:46:26.704Z,4.53
2024-02-22T09:48:54.408Z,4.65
2024-02-22T09:51:24.622Z,5.25
2024-02-22T09:53:53.502Z,4.60
2024-02-22T09:56:20.933Z,4.90
2024-02-22T09:58:49.833Z,4.82
2024-02-22T10:01:17.314Z,4.85
2024-02-22T10:03:44.594Z,3.80
2024-02-22T10:06:23.596Z,3.58
2024-02-22T10:08:51.022Z,4.22
2024-02-22T10:11:23.853Z,3.95
2024-02-22T10:14:06.192Z,3.92
2024-02-22T10:16:33.674Z,3.63
2024-02-22T10:19:02.145Z,3.55
2024-02-22T10:21:30.372Z,3.33
2024-02-22T10:23:59.591Z,3.38
2024-02-22T10:26:27.620Z,2.95
2024-02-22T10:28:58.574Z,3.13
2024-02-22T10:31:26.025Z,2.95
2024-02-22T10:33:55.549Z,3.28
2024-02-22T10:36:24.267Z,2.75
2024-02-22T10:38:52.871Z,2.63
2024-02-22T10:41:20.469Z,2.78
2024-02-22T10:43:49.724Z,2.90
2024-02-22T10:46:19.325Z,2.20
2024-02-22T10:48:55.475Z,2.80
2024-02-22T10:51:24.475Z,2.55
2024-02-22T10:53:57.347Z,3.08
2024-02-22T10:56:27.002Z,2.60
2024-02-22T10:58:59.612Z,3.10
2024-02-22T11:01:28.398Z,3.20
2024-02-22T11:03:59.632Z,3.38
2024-02-22T11:06:27.492Z,4.15
2024-02-22T11:09:03.133Z,3.60
2024-02-22T11:11:32.154Z,3.70
2024-02-22T11:14:01.260Z,3.45
2024-02-22T11:16:36.156Z,3.38
2024-02-22T11:19:11.013Z,3.60
2024-02-22T11:21:41.469Z,3.50
2024-02-22T11:26:42.040Z,3.92
2024-02-22T11:29:10.266Z,3.80
2024-02-22T11:31:38.250Z,4.03
2024-02-22T11:34:05.644Z,4.00
2024-02-22T11:36:33.237Z,3.78
2024-02-22T11:39:01.329Z,4.05
2024-02-22T11:41:31.598Z,4.07
2024-02-22T11:44:09.416Z,4.30
2024-02-22T11:46:38.724Z,4.03
2024-02-22T11:49:06.946Z,3.90
2024-02-22T11:51:34.178Z,4.60
2024-02-22T11:54:01.552Z,4.30
2024-02-22T11:56:29.177Z,3.88
2024-02-22T11:58:57.890Z,4.45
2024-02-22T12:01:27.086Z,4.30
2024-02-22T12:03:56.077Z,5.00
2024-02-22T12:06:24.017Z,5.13
2024-02-22T12:08:54.582Z,4.50
2024-02-22T12:11:23.203Z,4.65
2024-02-22T12:14:00.655Z,5.28
2024-02-22T12:16:29.307Z,5.03
2024-02-22T12:18:57.947Z,7.00
2024-02-22T12:21:28.823Z,6.35
2024-02-22T12:24:00.169Z,6.40
2024-02-22T12:26:28.012Z,6.57
2024-02-22T12:28:56.639Z,6.65
2024-02-22T12:31:24.015Z,7.97
2024-02-22T12:33:53.056Z,7.75
2024-02-22T12:36:23.145Z,8.50
2024-02-22T12:38:50.791Z,7.78
2024-02-22T12:41:19.609Z,7.50
2024-02-22T12:43:49.362Z,8.40
2024-02-22T12:46:18.199Z,8.40
2024-02-22T12:48:45.716Z,8.32
2024-02-22T12:51:20.503Z,8.40
2024-02-22T12:53:50.090Z,8.43
2024-02-22T12:56:17.387Z,8.20
2024-02-22T12:58:45.241Z,8.30
2024-02-22T13:01:15.637Z,8.45
2024-02-22T13:06:10.425Z,7.93
2024-02-22T13:08:39.702Z,7.40
2024-02-22T13:11:08.674Z,8.93
2024-02-22T13:13:35.999Z,8.48
2024-02-22T13:16:04.877Z,9.50
2024-02-22T13:18:32.262Z,9.80
2024-02-22T13:20:59.906Z,9.63
2024-02-22T13:23:27.726Z,10.57
2024-02-22T13:25:54.958Z,10.35
2024-02-22T13:28:22.095Z,9.05
2024-02-22T13:30:49.336Z,9.75
2024-02-22T13:33:16.597Z,11.68
2024-02-22T13:35:44.107Z,11.70
2024-02-22T13:38:11.389Z,12.68
2024-02-22T13:40:38.608Z,12.98
2024-02-22T13:43:06.473Z,11.25
2024-02-22T13:45:44.456Z,12.65
2024-02-22T13:48:13.685Z,13.63
2024-02-22T13:50:42.286Z,13.63
2024-02-22T13:53:09.708Z,14.02
2024-02-22T13:55:36.921Z,15.25
2024-02-22T13:58:04.347Z,13.00
2024-02-22T14:00:31.854Z,13.23
2024-02-22T14:02:59.226Z,13.98
2024-02-22T14:05:26.585Z,12.55
2024-02-22T14:07:56.046Z,12.90
2024-02-22T14:10:26.795Z,13.67
2024-02-22T14:12:56.527Z,11.98
2024-02-22T14:15:23.830Z,13.88
2024-02-22T14:17:51.105Z,12.77
2024-02-22T14:20:18.457Z,13.57
2024-02-22T14:22:48.445Z,18.05
2024-02-22T14:25:15.638Z,16.45
2024-02-22T14:27:42.818Z,15.85
2024-02-22T14:30:10.623Z,15.20
2024-02-22T14:32:38.277Z,12.60
2024-02-22T14:35:07.176Z,12.20
2024-02-22T14:37:34.367Z,11.18
2024-02-22T14:40:01.709Z,10.90
2024-02-22T14:42:28.999Z,12.10
2024-02-22T14:44:58.675Z,11.18
2024-02-22T14:47:26.552Z,11.32
2024-02-22T14:49:53.769Z,9.57
2024-02-22T14:52:22.450Z,10.10
2024-02-22T14:54:49.668Z,9.15
2024-02-22T14:57:16.885Z,10.68
2024-02-22T14:59:44.016Z,10.95
2024-02-22T15:02:11.259Z,10.98
2024-02-22T15:04:38.689Z,11.38
2024-02-22T15:07:06.852Z,11.07
2024-02-22T15:09:34.653Z,12.35
2024-02-22T15:12:03.225Z,12.93
2024-02-22T15:14:30.658Z,13.93
2024-02-22T15:16:57.880Z,12.88
2024-02-22T15:19:25.263Z,14.05
2024-02-22T15:21:52.374Z,13.57
2024-02-22T15:24:19.985Z,13.82
2024-02-22T15:26:47.257Z,16.38
2024-02-22T15:29:14.562Z,13.30
2024-02-22T15:31:41.706Z,15.00
2024-02-22T15:34:11.858Z,16.48
2024-02-22T15:36:40.531Z,14.88
2024-02-22T15:39:09.476Z,15.98
2024-02-22T15:41:38.317Z,15.20
2024-02-22T15:44:06.344Z,14.60
2024-02-22T15:46:33.619Z,16.25
2024-02-22T15:49:00.878Z,17.17
2024-02-22T15:51:29.894Z,17.27
2024-02-22T15:53:57.290Z,17.58
2024-02-22T15:56:26.767Z,19.45
2024-02-22T15:58:55.632Z,21.42
2024-02-22T16:01:24.713Z,20.63
2024-02-22T16:03:55.753Z,20.52
2024-02-22T16:06:23.092Z,20.98
2024-02-22T16:08:53.970Z,20.10
2024-02-22T16:11:21.670Z,19.90
2024-02-22T16:13:49.007Z,23.35
2024-02-22T16:16:18.249Z,22.55
2024-02-22T16:18:45.900Z,21.98
2024-02-22T16:21:13.305Z,20.08
2024-02-22T16:23:40.593Z,21.20
2024-02-22T16:26:09.274Z,20.30
2024-02-22T16:28:37.013Z,18.27
2024-02-22T16:31:04.380Z,19.88
2024-02-22T16:33:31.791Z,17.88
2024-02-22T16:36:02.891Z,20.30
2024-02-22T16:38:30.383Z,17.98
2024-02-22T16:40:58.278Z,18.85
2024-02-22T16:43:26.413Z,22.85
2024-02-22T16:45:54.888Z,21.77
2024-02-22T16:48:22.204Z,20.45
2024-02-22T16:50:49.526Z,17.90
2024-02-22T16:53:16.801Z,21.98
2024-02-22T16:55:44.059Z,22.90
2024-02-22T16:58:11.340Z,19.55
2024-02-22T17:00:38.678Z,18.73
2024-02-22T17:03:06.116Z,17.73
2024-02-22T17:05:33.948Z,18.08
2024-02-22T17:08:01.217Z,20.52
2024-02-22T17:10:28.440Z,18.60
2024-02-22T17:12:55.768Z,15.68
2024-02-22T17:15:22.945Z,16.67
2024-02-22T17:17:52.256Z,18.33
2024-02-22T17:20:19.679Z,18.17
2024-02-22T17:22:47.396Z,16.42
2024-02-22T17:25:14.878Z,17.17
2024-02-22T17:27:42.161Z,16.85
2024-02-22T17:30:12.697Z,15.40
2024-02-22T17:32:39.942Z,15.07
2024-02-22T17:35:07.493Z,14.88
2024-02-22T17:37:34.722Z,14.05
2024-02-22T17:40:02.354Z,13.30
2024-02-22T17:42:29.529Z,14.55
2024-02-22T17:44:56.690Z,13.30
2024-02-22T17:47:25.273Z,13.25
2024-02-22T17:49:52.612Z,12.88
2024-02-22T17:52:19.842Z,14.13
2024-02-22T17:54:47.047Z,12.05
2024-02-22T17:57:15.446Z,13.68
2024-02-22T17:59:42.722Z,13.45
2024-02-22T18:02:09.951Z,10.88
2024-02-22T18:04:37.289Z,10.95
2024-02-22T18:07:04.760Z,12.25
2024-02-22T18:09:32.229Z,11.73
2024-02-22T18:12:02.087Z,11.20
2024-02-22T18:14:33.398Z,11.25
2024-02-22T18:17:00.799Z,10.73
2024-02-22T18:19:28.085Z,10.82
2024-02-22T18:21:56.171Z,10.70
2024-02-22T18:24:23.649Z,11.32
2024-02-22T18:26:50.828Z,11.25
2024-02-22T18:29:18.153Z,10.13
2024-02-22T18:31:45.484Z,10.57
2024-02-22T18:34:13.117Z,10.52
2024-02-22T18:36:40.452Z,10.95
2024-02-22T18:39:09.419Z,10.27
2024-02-22T18:41:40.226Z,10.27
2024-02-22T18:44:07.508Z,10.15
2024-02-22T18:46:34.859Z,10.27
2024-02-22T18:49:02.204Z,9.57
2024-02-22T18:51:29.988Z,10.93
2024-02-22T18:53:57.209Z,10.10
2024-02-22T18:56:24.403Z,10.13
2024-02-22T18:58:52.860Z,9.77
2024-02-22T19:01:20.033Z,9.35
2024-02-22T19:03:47.318Z,10.68
2024-02-22T19:06:14.647Z,10.40
2024-02-22T19:08:41.828Z,9.98
2024-02-22T19:11:09.122Z,11.15
2024-02-22T19:13:36.295Z,9.30
2024-02-22T19:16:03.634Z,10.38
2024-02-22T19:18:30.784Z,9.75
2024-02-22T19:20:59.333Z,11.48
2024-02-22T19:23:27.028Z,10.50
2024-02-22T19:25:56.090Z,9.35
2024-02-22T19:28:24.580Z,10.70
2024-02-22T19:30:51.855Z,10.45
2024-02-22T19:33:19.882Z,9.90
2024-02-22T19:35:47.124Z,9.43
2024-02-22T19:38:21.907Z,9.93
2024-02-22T19:40:52.628Z,10.43
2024-02-22T19:43:20.499Z,10.07
2024-02-22T19:45:47.783Z,10.32
2024-02-22T19:48:15.070Z,9.88
2024-02-22T19:50:42.882Z,9.95
2024-02-22T19:53:10.277Z,10.00
2024-02-22T19:55:37.625Z,10.15
2024-02-22T19:58:05.377Z,9.95
2024-02-22T20:00:32.736Z,10.02
2024-02-22T20:03:00.033Z,10.48
2024-02-22T20:05:27.351Z,10.40
2024-02-22T20:07:55.330Z,11.70
2024-02-22T20:10:23.119Z,10.20
2024-02-22T20:12:50.459Z,10.68
2024-02-22T20:15:18.617Z,10.50
2024-02-22T20:17:45.924Z,10.18
2024-02-22T20:20:13.288Z,10.73
2024-02-22T20:22:40.740Z,10.50
2024-02-22T20:25:08.365Z,10.27
2024-02-22T20:27:36.089Z,10.00
2024-02-22T20:30:10.037Z,10.60
2024-02-22T20:32:37.744Z,11.50
2024-02-22T20:35:10.336Z,11.32
2024-02-22T20:37:43.103Z,9.85
2024-02-22T20:40:10.871Z,10.68
2024-02-22T20:42:38.830Z,10.40
2024-02-22T20:45:07.398Z,10.55
2024-02-22T20:47:34.720Z,10.05
2024-02-22T20:50:02.207Z,10.82
2024-02-22T20:52:30.565Z,10.98
2024-02-22T20:54:58.249Z,10.68
2024-02-22T20:57:25.413Z,10.65
2024-02-22T20:59:52.609Z,10.32
2024-02-22T21:02:19.827Z,11.15
2024-02-22T21:04:47.073Z,10.25
2024-02-22T21:07:14.691Z,11.05
2024-02-22T21:09:42.187Z,10.13
2024-02-22T21:12:09.505Z,11.02
2024-02-22T21:14:36.796Z,9.98
2024-02-22T21:17:04.153Z,10.95
2024-02-22T21:19:32.022Z,10.65
2024-02-22T21:22:00.209Z,10.57
2024-02-22T21:24:28.358Z,10.50
2024-02-22T21:26:55.477Z,11.15
2024-02-22T21:29:22.821Z,10.20
2024-02-22T21:31:52.760Z,10.43
2024-02-22T21:34:20.461Z,10.18
2024-02-22T21:36:47.820Z,9.65
2024-02-22T21:39:14.954Z,10.35
2024-02-22T21:41:42.195Z,11.52
2024-02-22T21:44:09.426Z,10.57
2024-02-22T21:46:36.654Z,10.45
2024-02-22T21:49:04.680Z,10.18
2024-02-22T21:51:31.954Z,10.25
2024-02-22T21:53:59.160Z,9.98
2024-02-22T21:56:26.513Z,9.52
2024-02-22T21:58:53.737Z,10.32
2024-02-22T22:01:21.004Z,10.63
2024-02-22T22:03:48.214Z,9.45
2024-02-22T22:06:16.729Z,10.65
2024-02-22T22:08:43.943Z,9.50
2024-02-22T22:11:11.320Z,9.70
2024-02-22T22:13:41.585Z,10.35
2024-02-22T22:16:11.244Z,10.63
2024-02-22T22:18:39.115Z,10.60
2024-02-22T22:21:20.844Z,10.05
2024-02-22T22:23:55.670Z,10.65
2024-02-22T22:26:22.978Z,10.05
2024-02-22T22:28:50.960Z,10.20
2024-02-22T22:31:18.122Z,9.70
2024-02-22T22:33:47.036Z,10.68
2024-02-22T22:36:17.620Z,9.88
2024-02-22T22:41:12.425Z,9.65
2024-02-22T22:43:43.458Z,9.43
2024-02-22T22:46:12.763Z,10.35
2024-02-22T22:48:39.870Z,9.70
2024-02-22T22:51:07.133Z,9.63
2024-02-22T22:53:34.190Z,10.52
2024-02-22T22:56:01.654Z,8.57
2024-02-22T22:58:28.898Z,9.45
2024-02-22T23:00:56.044Z,8.95
2024-02-22T23:03:23.187Z,8.65
2024-02-22T23:05:50.407Z,10.15
2024-02-22T23:08:17.594Z,9.20
2024-02-22T23:10:45.070Z,9.93
2024-02-22T23:13:12.255Z,9.52
2024-02-22T23:15:39.422Z,8.95
2024-02-22T23:18:07.799Z,9.30
2024-02-22T23:20:35.577Z,9.10
2024-02-22T23:23:02.787Z,9.15
2024-02-22T23:25:30.029Z,8.98
2024-02-22T23:27:57.176Z,9.18
2024-02-22T23:30:24.430Z,8.90
2024-02-22T23:32:51.643Z,8.65
2024-02-22T23:35:19.095Z,9.27
2024-02-22T23:37:46.404Z,9.73
2024-02-22T23:40:13.544Z,9.77
2024-02-22T23:42:40.771Z,9.30
2024-02-22T23:45:08.064Z,9.65
2024-02-22T23:47:35.516Z,8.63
2024-02-22T23:50:03.046Z,9.48
2024-02-22T23:52:31.269Z,9.38
2024-02-22T23:54:59.009Z,9.60
2024-02-22T23:57:27.988Z,9.25
2024-02-22T23:59:55.154Z,8.10
